createdAt,value
2019-03-19T00:00:42.075Z,56.94
2019-03-19T00:01:41.969Z,57.06
2019-03-19T00:02:41.861Z,57.06
2019-03-19T00:03:41.753Z,56.12
2019-03-19T00:04:41.649Z,57.06
2019-03-19T00:05:41.609Z,56.59
2019-03-19T00:06:41.432Z,57.44
2019-03-19T00:07:41.325Z,57.06
2019-03-19T00:08:41.217Z,57.25
2019-03-19T00:09:41.109Z,56.68
2019-03-19T00:10:41.003Z,57.92
2019-03-19T00:11:40.895Z,57.44
2019-03-19T00:12:40.790Z,58.11
2019-03-19T00:13:40.682Z,58.39
2019-03-19T00:14:40.574Z,57.35
2019-03-19T00:15:40.467Z,57.23
2019-03-19T00:16:40.361Z,58.77
2019-03-19T00:17:40.249Z,59.25
2019-03-19T00:18:40.147Z,58.58
2019-03-19T00:19:40.038Z,58.77
2019-03-19T00:20:39.931Z,57.35
2019-03-19T00:21:39.823Z,57.23
2019-03-19T00:22:39.717Z,56.75
2019-03-19T00:23:39.609Z,57.23
2019-03-19T00:24:39.590Z,57.23
2019-03-19T00:25:39.395Z,57.42
2019-03-19T00:26:39.293Z,58.65
2019-03-19T00:27:39.185Z,59.41
2019-03-19T00:28:39.220Z,57.98
2019-03-19T00:29:38.967Z,59.03
2019-03-19T00:30:38.855Z,59.97
2019-03-19T00:31:38.748Z,58.74
2019-03-19T00:32:38.643Z,58.65
2019-03-19T00:33:38.540Z,58.07
2019-03-19T00:34:38.430Z,57.51
2019-03-19T00:35:38.325Z,57.60
2019-03-19T00:36:38.214Z,58.17
2019-03-19T00:37:38.105Z,58.55
2019-03-19T00:38:37.998Z,58.84
2019-03-19T00:39:37.894Z,59.31
2019-03-19T00:40:38.035Z,57.79
2019-03-19T00:41:37.684Z,58.84
2019-03-19T00:42:37.568Z,58.55
2019-03-19T00:43:37.512Z,58.93
2019-03-19T00:44:37.358Z,59.31
2019-03-19T00:45:37.244Z,58.58
2019-03-19T00:46:37.139Z,59.05
2019-03-19T00:47:37.031Z,59.91
2019-03-19T00:48:36.925Z,58.58
2019-03-19T00:49:36.824Z,58.84
2019-03-19T00:50:36.709Z,58.74
2019-03-19T00:51:36.599Z,58.93
2019-03-19T00:52:36.502Z,59.22
2019-03-19T00:53:36.389Z,58.96
2019-03-19T00:54:36.281Z,58.17
2019-03-19T00:55:40.642Z,57.42
2019-03-19T00:56:36.075Z,57.32
2019-03-19T00:57:35.958Z,57.23
2019-03-19T00:58:35.850Z,58.26
2019-03-19T00:59:35.745Z,57.79
2019-03-19T01:00:35.885Z,57.23
2019-03-19T01:01:35.538Z,56.75
2019-03-19T01:02:35.478Z,57.32
2019-03-19T01:03:35.315Z,55.99
2019-03-19T01:04:35.207Z,56.56
2019-03-19T01:05:35.099Z,54.76
2019-03-19T01:06:34.997Z,55.43
2019-03-19T01:07:34.886Z,55.62
2019-03-19T01:08:34.781Z,55.05
2019-03-19T01:09:34.670Z,55.14
2019-03-19T01:10:34.562Z,55.52
2019-03-19T01:11:34.454Z,54.67
2019-03-19T01:12:34.349Z,55.80
2019-03-19T01:13:34.240Z,55.52
2019-03-19T01:14:34.133Z,54.95
2019-03-19T01:15:34.026Z,55.71
2019-03-19T01:16:33.918Z,56.18
2019-03-19T01:17:33.811Z,55.99
2019-03-19T01:18:33.710Z,54.67
2019-03-19T01:19:33.597Z,54.38
2019-03-19T01:20:33.761Z,55.99
2019-03-19T01:21:33.449Z,57.32
2019-03-19T01:22:35.032Z,56.94
2019-03-19T01:23:33.166Z,57.42
2019-03-19T01:24:33.060Z,57.51
2019-03-19T01:25:32.951Z,58.17
2019-03-19T01:26:32.844Z,57.54
2019-03-19T01:27:32.735Z,58.45
2019-03-19T01:28:32.632Z,59.91
2019-03-19T01:29:32.520Z,59.72
2019-03-19T01:30:32.414Z,60.28
2019-03-19T01:31:32.307Z,59.91
2019-03-19T01:32:32.201Z,60.19
2019-03-19T01:33:32.093Z,60.00
2019-03-19T01:34:32.032Z,62.56
2019-03-19T01:35:31.881Z,62.47
2019-03-19T01:36:31.772Z,61.05
2019-03-19T01:37:31.663Z,62.28
2019-03-19T01:38:31.554Z,62.37
2019-03-19T01:39:31.492Z,62.37
2019-03-19T01:40:31.434Z,62.85
2019-03-19T01:41:31.235Z,62.37
2019-03-19T01:42:31.130Z,62.18
2019-03-19T01:43:31.021Z,62.47
2019-03-19T01:44:30.913Z,62.85
2019-03-19T01:45:30.808Z,61.71
2019-03-19T01:46:30.699Z,62.08
2019-03-19T01:47:30.591Z,63.51
2019-03-19T01:48:30.485Z,63.70
2019-03-19T01:49:30.379Z,63.32
2019-03-19T01:50:30.270Z,63.89
2019-03-19T01:51:30.163Z,64.27
2019-03-19T01:52:30.055Z,65.50
2019-03-19T01:53:29.949Z,65.59
2019-03-19T01:54:29.846Z,65.03
2019-03-19T01:55:29.736Z,64.84
2019-03-19T01:56:29.629Z,64.27
2019-03-19T01:57:29.518Z,64.55
2019-03-19T01:58:29.478Z,63.98
2019-03-19T01:59:29.398Z,63.70
2019-03-19T02:00:29.201Z,65.12
2019-03-19T02:01:29.095Z,62.66
2019-03-19T02:02:28.985Z,64.74
2019-03-19T02:03:28.879Z,64.55
2019-03-19T02:04:28.774Z,63.60
2019-03-19T02:05:28.663Z,65.31
2019-03-19T02:06:28.558Z,64.55
2019-03-19T02:07:28.454Z,65.41
2019-03-19T02:08:28.345Z,64.84
2019-03-19T02:09:28.241Z,62.94
2019-03-19T02:10:28.130Z,64.36
2019-03-19T02:11:28.024Z,64.46
2019-03-19T02:12:27.917Z,64.17
2019-03-19T02:13:27.810Z,64.17
2019-03-19T02:14:27.703Z,63.70
2019-03-19T02:15:27.596Z,65.31
2019-03-19T02:16:27.490Z,65.22
2019-03-19T02:17:27.445Z,65.97
2019-03-19T02:18:27.276Z,64.84
2019-03-19T02:19:27.168Z,64.46
2019-03-19T02:20:27.072Z,65.50
2019-03-19T02:21:26.956Z,63.70
2019-03-19T02:22:26.849Z,63.98
2019-03-19T02:23:26.740Z,63.51
2019-03-19T02:24:26.635Z,63.13
2019-03-19T02:25:26.826Z,63.98
2019-03-19T02:26:26.419Z,63.13
2019-03-19T02:27:26.315Z,63.98
2019-03-19T02:28:26.205Z,63.60
2019-03-19T02:29:26.099Z,63.51
2019-03-19T02:30:25.999Z,62.66
2019-03-19T02:31:25.890Z,62.56
2019-03-19T02:32:25.796Z,61.90
2019-03-19T02:33:25.670Z,62.08
2019-03-19T02:34:25.575Z,62.56
2019-03-19T02:35:25.458Z,62.47
2019-03-19T02:36:25.445Z,62.28
2019-03-19T02:37:25.245Z,61.14
2019-03-19T02:38:25.136Z,61.80
2019-03-19T02:39:25.036Z,60.28
2019-03-19T02:40:24.929Z,60.19
2019-03-19T02:41:24.820Z,60.28
2019-03-19T02:42:24.710Z,59.72
2019-03-19T02:43:24.607Z,59.44
2019-03-19T02:44:24.499Z,58.67
2019-03-19T02:45:24.389Z,58.96
2019-03-19T02:46:24.281Z,58.67
2019-03-19T02:47:24.172Z,58.11
2019-03-19T02:48:24.070Z,58.20
2019-03-19T02:49:23.961Z,57.79
2019-03-19T02:50:23.851Z,57.64
2019-03-19T02:51:23.745Z,57.32
2019-03-19T02:52:23.642Z,57.23
2019-03-19T02:53:23.530Z,56.75
2019-03-19T02:54:23.426Z,56.09
2019-03-19T02:55:23.399Z,56.94
2019-03-19T02:56:32.662Z,55.99
2019-03-19T02:57:23.102Z,56.18
2019-03-19T02:58:22.992Z,55.43
2019-03-19T02:59:22.892Z,55.24
2019-03-19T03:00:23.031Z,54.38
2019-03-19T03:01:22.673Z,54.19
2019-03-19T03:02:22.566Z,54.67
2019-03-19T03:03:22.458Z,54.19
2019-03-19T03:04:22.351Z,53.81
2019-03-19T03:05:22.245Z,53.53
2019-03-19T03:06:22.137Z,53.25
2019-03-19T03:07:22.039Z,53.63
2019-03-19T03:08:21.926Z,53.81
2019-03-19T03:09:21.815Z,52.96
2019-03-19T03:10:21.705Z,51.92
2019-03-19T03:11:21.599Z,51.92
2019-03-19T03:12:21.492Z,51.73
2019-03-19T03:13:21.389Z,51.82
2019-03-19T03:14:21.323Z,51.92
2019-03-19T03:15:21.170Z,51.64
2019-03-19T03:16:21.063Z,51.45
2019-03-19T03:17:20.959Z,50.40
2019-03-19T03:18:20.848Z,49.46
2019-03-19T03:19:20.738Z,49.08
2019-03-19T03:20:20.884Z,48.89
2019-03-19T03:21:20.525Z,48.22
2019-03-19T03:22:20.419Z,48.13
2019-03-19T03:23:20.309Z,47.28
2019-03-19T03:24:20.207Z,46.90
2019-03-19T03:25:20.100Z,46.99
2019-03-19T03:26:19.991Z,46.99
2019-03-19T03:27:19.888Z,46.04
2019-03-19T03:28:19.780Z,46.61
2019-03-19T03:29:19.697Z,46.23
2019-03-19T03:30:19.558Z,46.14
2019-03-19T03:31:19.462Z,46.23
2019-03-19T03:32:19.415Z,45.95
2019-03-19T03:33:19.314Z,45.86
2019-03-19T03:34:19.140Z,45.95
2019-03-19T03:35:19.034Z,45.76
2019-03-19T03:36:18.928Z,46.04
2019-03-19T03:37:18.806Z,45.57
2019-03-19T03:38:18.702Z,45.67
2019-03-19T03:39:18.590Z,45.76
2019-03-19T03:40:18.491Z,45.67
2019-03-19T03:41:18.375Z,46.04
2019-03-19T03:42:18.269Z,45.29
2019-03-19T03:43:18.162Z,45.57
2019-03-19T03:44:18.056Z,46.23
2019-03-19T03:45:17.950Z,47.47
2019-03-19T03:46:17.839Z,47.94
2019-03-19T03:47:17.732Z,47.56
2019-03-19T03:48:17.624Z,47.37
2019-03-19T03:49:17.520Z,48.79
2019-03-19T03:50:17.407Z,48.22
2019-03-19T03:51:17.346Z,48.98
2019-03-19T03:52:17.269Z,50.49
2019-03-19T03:53:17.086Z,49.27
2019-03-19T03:54:16.980Z,49.65
2019-03-19T03:55:16.910Z,49.74
2019-03-19T03:56:16.769Z,49.36
2019-03-19T03:57:16.657Z,50.31
2019-03-19T03:58:16.558Z,49.84
2019-03-19T03:59:16.462Z,51.64
2019-03-19T04:00:16.337Z,51.45
2019-03-19T04:01:16.227Z,51.82
2019-03-19T04:02:16.120Z,52.87
2019-03-19T04:03:16.013Z,51.45
2019-03-19T04:04:15.907Z,51.54
2019-03-19T04:05:15.800Z,52.39
2019-03-19T04:06:15.694Z,51.73
2019-03-19T04:07:15.597Z,51.07
2019-03-19T04:08:15.481Z,52.11
2019-03-19T04:09:15.389Z,52.58
2019-03-19T04:10:15.296Z,52.20
2019-03-19T04:11:15.179Z,53.34
2019-03-19T04:12:15.059Z,53.34
2019-03-19T04:13:14.945Z,53.15
2019-03-19T04:14:14.829Z,52.87
2019-03-19T04:15:14.729Z,52.39
2019-03-19T04:16:14.622Z,52.20
2019-03-19T04:17:14.511Z,51.92
2019-03-19T04:18:14.402Z,52.01
2019-03-19T04:19:14.294Z,51.45
2019-03-19T04:20:14.189Z,52.29
2019-03-19T04:21:14.080Z,51.73
2019-03-19T04:22:15.973Z,51.73
2019-03-19T04:23:13.867Z,52.58
2019-03-19T04:24:13.844Z,51.45
2019-03-19T04:25:13.651Z,51.54
2019-03-19T04:26:13.545Z,50.40
2019-03-19T04:27:16.361Z,50.49
2019-03-19T04:28:13.333Z,49.08
2019-03-19T04:29:13.288Z,50.88
2019-03-19T04:30:13.118Z,50.97
2019-03-19T04:31:13.020Z,50.21
2019-03-19T04:32:12.903Z,51.07
2019-03-19T04:33:12.794Z,52.68
2019-03-19T04:34:12.688Z,52.96
2019-03-19T04:35:12.585Z,52.39
2019-03-19T04:36:12.475Z,52.11
2019-03-19T04:37:12.366Z,52.20
2019-03-19T04:38:12.258Z,53.44
2019-03-19T04:39:12.155Z,53.53
2019-03-19T04:40:12.049Z,51.18
2019-03-19T04:41:11.941Z,51.92
2019-03-19T04:42:11.829Z,51.95
2019-03-19T04:43:11.725Z,52.87
2019-03-19T04:44:11.615Z,54.67
2019-03-19T04:45:11.509Z,54.28
2019-03-19T04:46:11.403Z,53.56
2019-03-19T04:47:11.297Z,53.72
2019-03-19T04:48:11.264Z,54.13
2019-03-19T04:49:11.081Z,54.38
2019-03-19T04:50:10.976Z,54.00
2019-03-19T04:51:10.870Z,54.00
2019-03-19T04:52:10.760Z,53.15
2019-03-19T04:53:10.654Z,53.53
2019-03-19T04:54:10.545Z,54.10
2019-03-19T04:55:10.441Z,54.28
2019-03-19T04:56:10.334Z,54.50
2019-03-19T04:57:10.226Z,54.13
2019-03-19T04:58:10.122Z,53.06
2019-03-19T04:59:10.012Z,52.04
2019-03-19T05:00:09.905Z,53.46
2019-03-19T05:01:09.798Z,52.61
2019-03-19T05:02:09.691Z,54.19
2019-03-19T05:03:09.586Z,54.28
2019-03-19T05:04:09.478Z,54.19
2019-03-19T05:05:09.371Z,54.67
2019-03-19T05:06:09.265Z,53.18
2019-03-19T05:07:09.234Z,53.37
2019-03-19T05:08:09.050Z,53.94
2019-03-19T05:09:08.942Z,52.98
2019-03-19T05:10:08.838Z,53.94
2019-03-19T05:11:08.730Z,54.13
2019-03-19T05:12:08.622Z,54.32
2019-03-19T05:13:08.515Z,53.75
2019-03-19T05:14:08.408Z,54.60
2019-03-19T05:15:08.303Z,54.41
2019-03-19T05:16:08.196Z,54.79
2019-03-19T05:17:08.087Z,54.22
2019-03-19T05:18:07.981Z,54.98
2019-03-19T05:19:07.874Z,54.32
2019-03-19T05:20:07.765Z,54.22
2019-03-19T05:21:07.659Z,55.64
2019-03-19T05:22:07.555Z,55.17
2019-03-19T05:23:07.446Z,54.69
2019-03-19T05:24:07.338Z,55.17
2019-03-19T05:25:07.232Z,55.74
2019-03-19T05:26:07.147Z,55.64
2019-03-19T05:27:07.016Z,56.40
2019-03-19T05:28:06.912Z,54.41
2019-03-19T05:29:06.804Z,56.21
2019-03-19T05:30:06.702Z,56.30
2019-03-19T05:31:06.595Z,56.78
2019-03-19T05:32:06.482Z,55.17
2019-03-19T05:33:06.376Z,54.32
2019-03-19T05:34:06.268Z,55.64
2019-03-19T05:35:06.165Z,56.97
2019-03-19T05:36:06.057Z,56.78
2019-03-19T05:37:05.949Z,56.68
2019-03-19T05:38:05.842Z,55.93
2019-03-19T05:39:05.735Z,57.35
2019-03-19T05:40:05.634Z,56.59
2019-03-19T05:41:05.526Z,56.12
2019-03-19T05:42:05.412Z,55.36
2019-03-19T05:43:05.309Z,56.78
2019-03-19T05:44:05.202Z,56.40
2019-03-19T05:45:05.132Z,57.35
2019-03-19T05:46:04.994Z,56.12
2019-03-19T05:47:04.881Z,56.78
2019-03-19T05:48:04.776Z,55.36
2019-03-19T05:49:04.666Z,56.02
2019-03-19T05:50:04.559Z,55.17
2019-03-19T05:51:04.454Z,56.49
2019-03-19T05:52:04.345Z,55.83
2019-03-19T05:53:04.238Z,55.74
2019-03-19T05:54:04.141Z,56.49
2019-03-19T05:55:04.027Z,56.78
2019-03-19T05:56:03.929Z,57.16
2019-03-19T05:57:03.812Z,56.68
2019-03-19T05:58:03.707Z,56.87
2019-03-19T05:59:03.600Z,57.44
2019-03-19T06:00:03.791Z,57.25
2019-03-19T06:01:03.385Z,57.06
2019-03-19T06:02:03.279Z,58.29
2019-03-19T06:03:03.185Z,59.34
2019-03-19T06:04:03.098Z,59.05
2019-03-19T06:05:02.961Z,59.25
2019-03-19T06:06:02.856Z,58.39
2019-03-19T06:07:02.745Z,59.72
2019-03-19T06:08:02.644Z,60.00
2019-03-19T06:09:02.533Z,58.77
2019-03-19T06:10:02.429Z,59.44
2019-03-19T06:11:02.322Z,59.63
2019-03-19T06:12:02.218Z,60.19
2019-03-19T06:13:02.107Z,58.86
2019-03-19T06:14:01.999Z,59.72
2019-03-19T06:15:01.895Z,59.05
2019-03-19T06:16:01.788Z,61.80
2019-03-19T06:17:01.686Z,60.28
2019-03-19T06:18:01.576Z,61.61
2019-03-19T06:19:01.466Z,60.76
2019-03-19T06:20:01.363Z,59.81
2019-03-19T06:21:01.253Z,60.00
2019-03-19T06:22:01.155Z,62.47
2019-03-19T06:23:01.085Z,62.66
2019-03-19T06:24:00.936Z,61.99
2019-03-19T06:25:00.833Z,62.94
2019-03-19T06:26:00.721Z,62.75
2019-03-19T06:27:00.614Z,63.13
2019-03-19T06:28:01.043Z,62.66
2019-03-19T06:29:00.399Z,61.61
2019-03-19T06:30:00.351Z,64.08
2019-03-19T06:31:00.189Z,64.55
2019-03-19T06:32:00.082Z,64.49
2019-03-19T06:32:59.980Z,63.73
2019-03-19T06:33:59.869Z,64.65
2019-03-19T06:34:59.763Z,65.41
2019-03-19T06:35:59.657Z,64.55
2019-03-19T06:36:59.551Z,66.35
2019-03-19T06:37:59.445Z,66.26
2019-03-19T06:38:59.338Z,66.39
2019-03-19T06:39:59.231Z,64.59
2019-03-19T06:40:59.125Z,65.82
2019-03-19T06:41:59.044Z,67.81
2019-03-19T06:42:58.913Z,67.81
2019-03-19T06:43:58.806Z,67.62
2019-03-19T06:44:58.957Z,68.19
2019-03-19T06:45:58.590Z,66.96
2019-03-19T06:46:58.486Z,68.19
2019-03-19T06:47:58.383Z,68.38
2019-03-19T06:48:58.273Z,69.52
2019-03-19T06:49:58.169Z,69.04
2019-03-19T06:50:58.062Z,69.99
2019-03-19T06:51:57.957Z,70.09
2019-03-19T06:52:57.849Z,70.09
2019-03-19T06:53:57.745Z,68.85
2019-03-19T06:54:57.637Z,71.89
2019-03-19T06:55:57.535Z,72.27
2019-03-19T06:56:57.426Z,72.55
2019-03-19T06:57:57.351Z,71.13
2019-03-19T06:58:57.215Z,71.32
2019-03-19T06:59:57.109Z,72.36
2019-03-19T07:00:57.028Z,71.03
2019-03-19T07:01:56.900Z,71.41
2019-03-19T07:02:56.791Z,71.51
2019-03-19T07:03:56.689Z,70.65
2019-03-19T07:04:56.581Z,71.32
2019-03-19T07:05:56.472Z,71.60
2019-03-19T07:06:56.370Z,72.27
2019-03-19T07:07:56.262Z,72.17
2019-03-19T07:08:56.155Z,73.88
2019-03-19T07:09:56.050Z,72.45
2019-03-19T07:10:55.945Z,71.51
2019-03-19T07:11:55.842Z,69.90
2019-03-19T07:12:55.737Z,73.79
2019-03-19T07:13:55.625Z,74.26
2019-03-19T07:14:55.524Z,73.35
2019-03-19T07:15:55.417Z,75.72
2019-03-19T07:16:55.310Z,75.72
2019-03-19T07:17:55.203Z,73.82
2019-03-19T07:18:55.099Z,77.62
2019-03-19T07:19:55.047Z,77.14
2019-03-19T07:20:54.887Z,77.43
2019-03-19T07:21:54.783Z,77.33
2019-03-19T07:22:54.678Z,77.62
2019-03-19T07:23:54.574Z,78.19
2019-03-19T07:24:54.467Z,77.71
2019-03-19T07:25:54.364Z,77.24
2019-03-19T07:26:54.286Z,78.00
2019-03-19T07:27:54.153Z,77.52
2019-03-19T07:28:54.043Z,77.43
2019-03-19T07:29:53.940Z,77.33
2019-03-19T07:30:53.836Z,77.71
2019-03-19T07:31:53.730Z,77.90
2019-03-19T07:32:53.625Z,77.90
2019-03-19T07:33:53.519Z,77.90
2019-03-19T07:34:53.414Z,78.09
2019-03-19T07:35:53.309Z,75.91
2019-03-19T07:36:53.203Z,77.14
2019-03-19T07:37:53.099Z,76.10
2019-03-19T07:38:53.059Z,77.43
2019-03-19T07:39:52.897Z,78.95
2019-03-19T07:40:52.790Z,78.85
2019-03-19T07:41:52.680Z,78.19
2019-03-19T07:42:52.574Z,80.84
2019-03-19T07:43:52.469Z,79.42
2019-03-19T07:44:52.364Z,80.18
2019-03-19T07:45:52.259Z,80.84
2019-03-19T07:46:52.152Z,80.94
2019-03-19T07:47:52.052Z,83.03
2019-03-19T07:48:51.945Z,83.69
2019-03-19T07:49:51.836Z,83.88
2019-03-19T07:50:51.735Z,83.97
2019-03-19T07:51:53.395Z,83.88
2019-03-19T07:52:51.523Z,82.84
2019-03-19T07:53:51.419Z,83.40
2019-03-19T07:54:51.312Z,84.45
2019-03-19T07:55:53.313Z,83.40
2019-03-19T07:56:51.101Z,85.02
2019-03-19T07:57:51.022Z,84.74
2019-03-19T07:58:50.964Z,84.64
2019-03-19T07:59:50.787Z,85.68
2019-03-19T08:00:50.679Z,83.12
2019-03-19T08:01:50.577Z,85.30
2019-03-19T08:02:50.472Z,83.78
2019-03-19T08:03:50.370Z,83.64
2019-03-19T08:04:50.265Z,84.92
2019-03-19T08:05:50.156Z,87.49
2019-03-19T08:06:50.051Z,85.59
2019-03-19T08:07:49.947Z,83.40
2019-03-19T08:08:49.842Z,84.55
2019-03-19T08:09:49.742Z,82.46
2019-03-19T08:10:49.632Z,84.87
2019-03-19T08:11:49.525Z,85.11
2019-03-19T08:12:49.418Z,84.07
2019-03-19T08:13:49.314Z,83.83
2019-03-19T08:14:49.209Z,84.87
2019-03-19T08:15:49.106Z,86.49
2019-03-19T08:16:49.035Z,85.53
2019-03-19T08:17:48.938Z,84.97
2019-03-19T08:18:48.789Z,85.72
2019-03-19T08:19:48.684Z,87.91
2019-03-19T08:20:48.578Z,87.15
2019-03-19T08:21:48.476Z,87.43
2019-03-19T08:22:48.367Z,86.96
2019-03-19T08:23:48.261Z,87.43
2019-03-19T08:24:48.160Z,87.76
2019-03-19T08:25:48.055Z,88.15
2019-03-19T08:26:49.157Z,88.15
2019-03-19T08:27:47.846Z,87.19
2019-03-19T08:28:55.081Z,87.76
2019-03-19T08:29:47.635Z,88.15
2019-03-19T08:30:47.528Z,88.53
2019-03-19T08:31:47.426Z,89.00
2019-03-19T08:32:47.318Z,89.28
2019-03-19T08:33:47.214Z,88.34
2019-03-19T08:34:47.108Z,88.85
2019-03-19T08:35:47.004Z,89.90
2019-03-19T08:36:46.935Z,90.75
2019-03-19T08:37:46.795Z,88.76
2019-03-19T08:38:46.701Z,91.61
2019-03-19T08:39:46.591Z,89.71
2019-03-19T08:40:46.483Z,90.28
2019-03-19T08:41:46.378Z,89.04
2019-03-19T08:42:46.275Z,92.46
2019-03-19T08:43:46.172Z,91.94
2019-03-19T08:44:46.065Z,92.46
2019-03-19T08:45:45.962Z,88.76
2019-03-19T08:46:45.858Z,88.43
2019-03-19T08:47:45.755Z,87.48
2019-03-19T08:48:45.650Z,89.28
2019-03-19T08:49:45.545Z,89.38
2019-03-19T08:50:45.443Z,89.00
2019-03-19T08:51:45.341Z,88.24
2019-03-19T08:52:45.239Z,87.95
2019-03-19T08:53:45.132Z,88.81
2019-03-19T08:54:45.032Z,89.38
2019-03-19T08:55:44.964Z,89.00
2019-03-19T08:56:44.939Z,91.09
2019-03-19T08:57:44.719Z,90.90
2019-03-19T08:58:44.614Z,91.38
2019-03-19T08:59:44.509Z,90.71
2019-03-19T09:00:44.406Z,92.23
2019-03-19T09:01:44.304Z,90.85
2019-03-19T09:02:44.197Z,90.28
2019-03-19T09:03:44.095Z,93.51
2019-03-19T09:04:43.990Z,92.85
2019-03-19T09:05:43.886Z,94.18
2019-03-19T09:06:43.785Z,93.99
2019-03-19T09:07:43.687Z,91.18
2019-03-19T09:08:43.575Z,92.32
2019-03-19T09:09:43.471Z,94.79
2019-03-19T09:10:43.369Z,96.50
2019-03-19T09:11:43.264Z,95.98
2019-03-19T09:12:43.161Z,93.98
2019-03-19T09:13:43.055Z,95.41
2019-03-19T09:14:42.952Z,94.46
2019-03-19T09:15:42.925Z,93.98
2019-03-19T09:16:42.748Z,94.79
2019-03-19T09:17:42.644Z,94.70
2019-03-19T09:18:42.539Z,94.74
2019-03-19T09:19:42.434Z,94.60
2019-03-19T09:20:42.335Z,97.36
2019-03-19T09:21:42.230Z,95.08
2019-03-19T09:22:42.127Z,94.74
2019-03-19T09:23:42.024Z,94.93
2019-03-19T09:24:41.918Z,93.89
2019-03-19T09:25:41.818Z,93.32
2019-03-19T09:26:41.715Z,94.74
2019-03-19T09:27:41.614Z,95.56
2019-03-19T09:28:41.508Z,94.46
2019-03-19T09:29:41.405Z,93.13
2019-03-19T09:30:41.302Z,95.89
2019-03-19T09:31:41.199Z,93.70
2019-03-19T09:32:41.098Z,93.84
2019-03-19T09:33:41.003Z,93.46
2019-03-19T09:34:40.907Z,95.32
2019-03-19T09:35:40.842Z,94.89
2019-03-19T09:36:40.684Z,95.08
2019-03-19T09:37:44.419Z,93.75
2019-03-19T09:38:40.479Z,95.08
2019-03-19T09:39:40.375Z,94.37
2019-03-19T09:40:40.270Z,96.36
2019-03-19T09:41:40.169Z,96.03
2019-03-19T09:42:40.064Z,94.98
2019-03-19T09:43:39.959Z,95.27
2019-03-19T09:44:39.860Z,95.17
2019-03-19T09:45:39.757Z,95.17
2019-03-19T09:46:39.654Z,94.60
2019-03-19T09:47:39.550Z,95.08
2019-03-19T09:48:39.450Z,94.42
2019-03-19T09:49:39.345Z,94.13
2019-03-19T09:50:39.243Z,93.94
2019-03-19T09:51:39.140Z,94.70
2019-03-19T09:52:39.042Z,95.27
2019-03-19T09:53:38.940Z,95.41
2019-03-19T09:54:38.883Z,95.36
2019-03-19T09:55:38.838Z,94.79
2019-03-19T09:56:38.630Z,94.42
2019-03-19T09:57:38.527Z,95.56
2019-03-19T09:58:38.424Z,94.93
2019-03-19T09:59:38.325Z,93.98
2019-03-19T10:00:38.220Z,94.37
2019-03-19T10:01:38.116Z,94.08
2019-03-19T10:02:38.015Z,93.70
2019-03-19T10:03:37.912Z,92.08
2019-03-19T10:04:37.810Z,92.80
2019-03-19T10:05:37.709Z,92.65
2019-03-19T10:06:37.609Z,91.94
2019-03-19T10:07:37.504Z,91.18
2019-03-19T10:08:37.398Z,86.90
2019-03-19T10:09:37.297Z,86.29
2019-03-19T10:10:37.269Z,86.76
2019-03-19T10:11:37.091Z,89.94
2019-03-19T10:12:36.990Z,86.86
2019-03-19T10:13:36.888Z,86.99
2019-03-19T10:14:36.859Z,87.05
2019-03-19T10:15:36.679Z,87.76
2019-03-19T10:16:36.578Z,89.94
2019-03-19T10:17:36.475Z,91.18
2019-03-19T10:18:36.374Z,91.47
2019-03-19T10:19:36.269Z,91.18
2019-03-19T10:20:36.169Z,90.04
2019-03-19T10:21:36.062Z,90.52
2019-03-19T10:22:35.961Z,89.04
2019-03-19T10:23:35.856Z,90.56
2019-03-19T10:24:35.755Z,90.66
2019-03-19T10:25:37.888Z,91.33
2019-03-19T10:26:35.545Z,91.23
2019-03-19T10:27:35.444Z,90.94
2019-03-19T10:28:35.348Z,90.85
2019-03-19T10:29:38.481Z,91.04
2019-03-19T10:30:35.132Z,92.27
2019-03-19T10:31:35.032Z,90.85
2019-03-19T10:32:34.924Z,90.66
2019-03-19T10:33:34.846Z,91.28
2019-03-19T10:34:34.768Z,92.03
2019-03-19T10:35:34.612Z,90.23
2019-03-19T10:36:34.510Z,91.18
2019-03-19T10:37:34.406Z,91.32
2019-03-19T10:38:34.304Z,91.13
2019-03-19T10:39:34.199Z,89.70
2019-03-19T10:40:34.097Z,88.66
2019-03-19T10:41:33.995Z,87.85
2019-03-19T10:42:33.889Z,90.14
2019-03-19T10:43:33.785Z,90.80
2019-03-19T10:44:33.680Z,91.18
2019-03-19T10:45:33.577Z,91.94
2019-03-19T10:46:33.474Z,91.89
2019-03-19T10:47:33.372Z,92.03
2019-03-19T10:48:33.265Z,93.37
2019-03-19T10:49:33.164Z,92.89
2019-03-19T10:50:33.060Z,91.75
2019-03-19T10:51:35.088Z,91.28
2019-03-19T10:52:32.850Z,92.13
2019-03-19T10:53:32.803Z,92.22
2019-03-19T10:54:32.646Z,91.66
2019-03-19T10:55:32.542Z,91.28
2019-03-19T10:56:32.441Z,89.85
2019-03-19T10:57:32.334Z,89.85
2019-03-19T10:58:32.230Z,89.28
2019-03-19T10:59:32.127Z,89.42
2019-03-19T11:00:32.024Z,89.56
2019-03-19T11:01:31.919Z,89.61
2019-03-19T11:02:31.816Z,90.37
2019-03-19T11:03:31.712Z,89.04
2019-03-19T11:04:31.609Z,86.47
2019-03-19T11:05:31.506Z,88.46
2019-03-19T11:06:31.400Z,86.04
2019-03-19T11:07:31.297Z,88.32
2019-03-19T11:08:31.196Z,85.56
2019-03-19T11:09:31.091Z,82.04
2019-03-19T11:10:30.988Z,82.51
2019-03-19T11:11:30.884Z,81.76
2019-03-19T11:12:30.790Z,80.42
2019-03-19T11:13:30.719Z,79.94
2019-03-19T11:14:30.572Z,80.33
2019-03-19T11:15:31.690Z,81.56
2019-03-19T11:16:30.368Z,86.13
2019-03-19T11:17:30.266Z,85.60
2019-03-19T11:18:30.166Z,85.70
2019-03-19T11:19:30.064Z,85.03
2019-03-19T11:20:29.962Z,83.41
2019-03-19T11:21:29.859Z,81.79
2019-03-19T11:22:29.754Z,83.32
2019-03-19T11:23:29.648Z,84.56
2019-03-19T11:24:29.549Z,85.22
2019-03-19T11:25:29.445Z,86.80
2019-03-19T11:26:29.343Z,88.32
2019-03-19T11:27:29.239Z,90.80
2019-03-19T11:28:29.138Z,92.36
2019-03-19T11:29:29.036Z,92.46
2019-03-19T11:30:28.934Z,93.60
2019-03-19T11:31:28.831Z,95.17
2019-03-19T11:32:28.770Z,94.42
2019-03-19T11:33:28.701Z,94.32
2019-03-19T11:34:28.525Z,95.36
2019-03-19T11:35:28.421Z,94.32
2019-03-19T11:36:28.324Z,95.36
2019-03-19T11:37:28.214Z,96.36
2019-03-19T11:38:28.111Z,97.41
2019-03-19T11:39:28.009Z,97.31
2019-03-19T11:40:27.906Z,96.94
2019-03-19T11:41:27.804Z,97.41
2019-03-19T11:42:27.700Z,98.65
2019-03-19T11:43:27.600Z,97.50
2019-03-19T11:44:27.496Z,96.98
2019-03-19T11:45:27.397Z,98.69
2019-03-19T11:46:27.291Z,98.22
2019-03-19T11:47:27.188Z,98.13
2019-03-19T11:48:27.086Z,98.03
2019-03-19T11:49:26.984Z,97.17
2019-03-19T11:50:26.883Z,96.98
2019-03-19T11:51:26.780Z,97.51
2019-03-19T11:52:26.733Z,96.84
2019-03-19T11:53:26.574Z,96.65
2019-03-19T11:54:26.472Z,95.60
2019-03-19T11:55:26.370Z,95.03
2019-03-19T11:56:26.267Z,95.41
2019-03-19T11:57:26.164Z,95.70
2019-03-19T11:58:26.062Z,94.17
2019-03-19T11:59:25.959Z,92.65
2019-03-19T12:00:25.858Z,88.65
2019-03-19T12:01:25.758Z,87.89
2019-03-19T12:02:26.411Z,90.22
2019-03-19T12:03:25.554Z,86.18
2019-03-19T12:04:25.453Z,80.08
2019-03-19T12:05:25.350Z,76.75
2019-03-19T12:06:25.247Z,75.70
2019-03-19T12:07:25.144Z,74.56
2019-03-19T12:08:25.047Z,73.28
2019-03-19T12:09:24.942Z,74.14
2019-03-19T12:10:24.840Z,74.14
2019-03-19T12:11:24.739Z,75.28
2019-03-19T12:12:24.710Z,73.70
2019-03-19T12:13:24.534Z,72.75
2019-03-19T12:14:24.433Z,72.85
2019-03-19T12:15:24.331Z,73.03
2019-03-19T12:16:24.228Z,72.75
2019-03-19T12:17:24.130Z,72.65
2019-03-19T12:18:24.026Z,72.94
2019-03-19T12:19:23.925Z,73.80
2019-03-19T12:20:23.822Z,74.46
2019-03-19T12:21:23.720Z,73.99
2019-03-19T12:22:23.619Z,74.27
2019-03-19T12:23:23.518Z,74.56
2019-03-19T12:24:23.415Z,72.75
2019-03-19T12:25:23.313Z,72.37
2019-03-19T12:26:23.216Z,72.08
2019-03-19T12:27:23.115Z,73.22
2019-03-19T12:28:23.009Z,73.03
2019-03-19T12:29:22.907Z,71.89
2019-03-19T12:30:25.971Z,72.21
2019-03-19T12:31:22.706Z,69.74
2019-03-19T12:32:22.686Z,68.98
2019-03-19T12:33:22.510Z,71.83
2019-03-19T12:34:22.404Z,70.97
2019-03-19T12:35:22.310Z,70.50
2019-03-19T12:36:22.196Z,71.98
2019-03-19T12:37:22.100Z,72.56
2019-03-19T12:38:21.996Z,73.03
2019-03-19T12:39:21.895Z,73.99
2019-03-19T12:40:21.794Z,73.70
2019-03-19T12:41:21.690Z,73.41
2019-03-19T12:42:21.631Z,74.37
2019-03-19T12:43:21.491Z,75.42
2019-03-19T12:44:21.387Z,73.80
2019-03-19T12:45:21.284Z,73.19
2019-03-19T12:46:21.182Z,73.85
2019-03-19T12:47:21.086Z,73.00
2019-03-19T12:48:20.981Z,72.24
2019-03-19T12:49:20.879Z,72.81
2019-03-19T12:50:20.777Z,72.90
2019-03-19T12:51:20.678Z,74.52